Abney, South Carolina
Current Conditions -  °F | °C
As of 12:15 PM on Thursday 27 Nov 2014 (Local Time) from KCDN Reporting Station
Few Clouds Few Clouds  
Wind Chill: 52°   Ceiling: Unl
Heat Index: 52°   Visibility: 10mi
Dew Point: 28°   Wind: 17mph
Humidity: 41%   Direction: 290°WNW
Pressure: 30.12"   Gusts: 24mph
Location:  34.5438°N, 80.5351°W
Report Text: KCDN 271715Z AUTO 29015G21KT 10SM FEW050 11/M02 A3012 RMK AO2 TSNO
Loading
Personal Weather Stations






























Interactive Weather Map New forecast layout! Learn more

10-Day Weather Forecast

Advertisements
Track Severe Weather on mobile